sensor_id;sensor_type;location;lat;lon;timestamp;pressure;altitude;pressure_sealevel;temperature;humidity
10897;BME280;5501;51.176;6.470;2024-03-23T00:54:49;100489.13;;;9.26;100.00
10897;BME280;5501;51.176;6.470;2024-03-23T00:59:50;100496.66;;;9.41;100.00
10897;BME280;5501;51.176;6.470;2024-03-23T01:04:50;100485.50;;;8.95;100.00
10897;BME280;5501;51.176;6.470;2024-03-23T01:09:51;100495.44;;;9.22;100.00
10897;BME280;5501;51.176;6.470;2024-03-23T01:14:53;100484.50;;;8.99;100.00
10897;BME280;5501;51.176;6.470;2024-03-23T01:19:53;100479.16;;;9.02;100.00
10897;BME280;5501;51.176;6.470;2024-03-23T01:24:54;100474.91;;;8.95;98.89
10897;BME280;5501;51.176;6.470;2024-03-23T01:29:54;100479.19;;;9.01;98.27
10897;BME280;5501;51.176;6.470;2024-03-23T01:34:55;100472.81;;;9.08;99.07
10897;BME280;5501;51.176;6.470;2024-03-23T01:39:56;100474.84;;;9.32;100.00
10897;BME280;5501;51.176;6.470;2024-03-23T01:44:56;100481.00;;;9.32;99.31
10897;BME280;5501;51.176;6.470;2024-03-23T01:49:57;100469.47;;;9.33;100.00
10897;BME280;5501;51.176;6.470;2024-03-23T01:54:57;100453.47;;;9.36;95.99
10897;BME280;5501;51.176;6.470;2024-03-23T01:59:58;100447.00;;;9.46;95.87
10897;BME280;5501;51.176;6.470;2024-03-23T02:05:01;100448.81;;;9.44;95.53
10897;BME280;5501;51.176;6.470;2024-03-23T02:10:02;100440.13;;;9.39;95.17
10897;BME280;5501;51.176;6.470;2024-03-23T02:15:03;100436.28;;;9.49;95.89
10897;BME280;5501;51.176;6.470;2024-03-23T02:20:04;100438.19;;;9.44;97.50
10897;BME280;5501;51.176;6.470;2024-03-23T02:25:06;100438.22;;;9.43;99.08
10897;BME280;5501;51.176;6.470;2024-03-23T02:30:08;100417.50;;;9.57;100.00
10897;BME280;5501;51.176;6.470;2024-03-23T02:35:08;100423.78;;;9.54;100.00
10897;BME280;5501;51.176;6.470;2024-03-23T02:40:09;100448.72;;;9.79;100.00
10897;BME280;5501;51.176;6.470;2024-03-23T02:45:09;100439.41;;;9.65;100.00
10897;BME280;5501;51.176;6.470;2024-03-23T02:50:10;100438.72;;;9.87;99.88
10897;BME280;5501;51.176;6.470;2024-03-23T02:55:10;100430.44;;;9.69;98.53
10897;BME280;5501;51.176;6.470;2024-03-23T03:00:11;100434.91;;;9.67;100.00
10897;BME280;5501;51.176;6.470;2024-03-23T03:05:13;100435.78;;;9.67;100.00
10897;BME280;5501;51.176;6.470;2024-03-23T03:10:14;100411.22;;;9.59;100.00
10897;BME280;5501;51.176;6.470;2024-03-23T03:15:14;100400.19;;;9.74;100.00
10897;BME280;5501;51.176;6.470;2024-03-23T03:20:15;100403.22;;;9.61;100.00
10897;BME280;5501;51.176;6.470;2024-03-23T03:25:16;100426.97;;;9.65;100.00
10897;BME280;5501;51.176;6.470;2024-03-23T03:30:17;100429.16;;;9.51;100.00
10897;BME280;5501;51.176;6.470;2024-03-23T03:35:17;100425.44;;;9.58;100.00
10897;BME280;5501;51.176;6.470;2024-03-23T03:40:18;100417.38;;;9.29;100.00
10897;BME280;5501;51.176;6.470;2024-03-23T03:45:18;100430.63;;;9.61;100.00
10897;BME280;5501;51.176;6.470;2024-03-23T03:50:19;100435.69;;;9.70;98.42
10897;BME280;5501;51.176;6.470;2024-03-23T03:55:20;100433.75;;;9.46;99.81
10897;BME280;5501;51.176;6.470;2024-03-23T04:00:21;100437.44;;;9.71;98.00
10897;BME280;5501;51.176;6.470;2024-03-23T04:05:22;100432.03;;;9.74;96.55
10897;BME280;5501;51.176;6.470;2024-03-23T04:10:22;100428.75;;;9.34;96.63
10897;BME280;5501;51.176;6.470;2024-03-23T04:15:23;100421.97;;;9.55;97.72
10897;BME280;5501;51.176;6.470;2024-03-23T04:20:23;100424.34;;;9.33;97.96
10897;BME280;5501;51.176;6.470;2024-03-23T04:25:24;100415.88;;;9.21;98.13
10897;BME280;5501;51.176;6.470;2024-03-23T04:30:24;100407.63;;;8.98;99.94
10897;BME280;5501;51.176;6.470;2024-03-23T04:35:28;100417.50;;;9.26;100.00
10897;BME280;5501;51.176;6.470;2024-03-23T04:40:29;100407.66;;;9.30;98.28
10897;BME280;5501;51.176;6.470;2024-03-23T04:45:29;100422.06;;;9.21;99.44
10897;BME280;5501;51.176;6.470;2024-03-23T04:50:30;100413.66;;;9.36;98.00
10897;BME280;5501;51.176;6.470;2024-03-23T04:55:30;100407.03;;;9.20;98.32
10897;BME280;5501;51.176;6.470;2024-03-23T05:00:31;100415.38;;;9.37;98.02
10897;BME280;5501;51.176;6.470;2024-03-23T05:05:32;100411.44;;;9.21;98.71
10897;BME280;5501;51.176;6.470;2024-03-23T05:10:33;100414.09;;;9.21;98.41
10897;BME280;5501;51.176;6.470;2024-03-23T05:15:34;100416.16;;;9.10;99.99
10897;BME280;5501;51.176;6.470;2024-03-23T05:20:35;100417.25;;;9.02;100.00
10897;BME280;5501;51.176;6.470;2024-03-23T05:25:36;100416.22;;;9.07;99.49
10897;BME280;5501;51.176;6.470;2024-03-23T05:30:36;100426.75;;;9.10;100.00
10897;BME280;5501;51.176;6.470;2024-03-23T05:35:37;100427.09;;;8.98;100.00
10897;BME280;5501;51.176;6.470;2024-03-23T05:40:37;100422.03;;;8.89;100.00
10897;BME280;5501;51.176;6.470;2024-03-23T05:45:40;100420.25;;;8.88;100.00
10897;BME280;5501;51.176;6.470;2024-03-23T05:50:41;100426.63;;;8.83;100.00
10897;BME280;5501;51.176;6.470;2024-03-23T05:55:42;100422.22;;;8.80;100.00
10897;BME280;5501;51.176;6.470;2024-03-23T06:00:43;100431.03;;;8.82;100.00
10897;BME280;5501;51.176;6.470;2024-03-23T06:05:43;100435.28;;;8.89;100.00
10897;BME280;5501;51.176;6.470;2024-03-23T06:10:45;100441.09;;;8.68;100.00
10897;BME280;5501;51.176;6.470;2024-03-23T06:15:46;100438.69;;;8.59;100.00
10897;BME280;5501;51.176;6.470;2024-03-23T06:20:47;100443.84;;;8.65;100.00
10897;BME280;5501;51.176;6.470;2024-03-23T06:25:47;100433.97;;;9.05;99.43
10897;BME280;5501;51.176;6.470;2024-03-23T06:30:48;100434.19;;;8.96;99.24
10897;BME280;5501;51.176;6.470;2024-03-23T06:35:51;100440.69;;;8.85;99.42
10897;BME280;5501;51.176;6.470;2024-03-23T06:40:52;100449.69;;;9.13;98.44
10897;BME280;5501;51.176;6.470;2024-03-23T06:45:53;100449.59;;;9.17;97.58
10897;BME280;5501;51.176;6.470;2024-03-23T06:50:57;100459.16;;;8.89;99.72
10897;BME280;5501;51.176;6.470;2024-03-23T06:55:58;100464.03;;;9.04;99.13
10897;BME280;5501;51.176;6.470;2024-03-23T07:00:58;100455.09;;;9.08;97.90
10897;BME280;5501;51.176;6.470;2024-03-23T07:05:59;100459.53;;;9.09;97.75
10897;BME280;5501;51.176;6.470;2024-03-23T07:10:59;100461.75;;;9.24;99.03
10897;BME280;5501;51.176;6.470;2024-03-23T07:16:00;100461.50;;;9.33;98.18
10897;BME280;5501;51.176;6.470;2024-03-23T07:21:01;100448.44;;;9.26;97.51
10897;BME280;5501;51.176;6.470;2024-03-23T07:26:05;100445.16;;;9.48;97.44
10897;BME280;5501;51.176;6.470;2024-03-23T07:31:07;100446.75;;;9.55;95.88
10897;BME280;5501;51.176;6.470;2024-03-23T07:36:09;100448.88;;;9.73;94.18
10897;BME280;5501;51.176;6.470;2024-03-23T07:41:11;100445.25;;;9.76;93.81
10897;BME280;5501;51.176;6.470;2024-03-23T07:46:13;100444.13;;;9.84;91.09
10897;BME280;5501;51.176;6.470;2024-03-23T07:51:17;100453.16;;;9.77;88.36
10897;BME280;5501;51.176;6.470;2024-03-23T07:56:18;100451.47;;;10.34;84.41
10897;BME280;5501;51.176;6.470;2024-03-23T08:01:19;100456.53;;;10.43;84.02
10897;BME280;5501;51.176;6.470;2024-03-23T08:06:20;100457.47;;;10.41;81.88
10897;BME280;5501;51.176;6.470;2024-03-23T08:11:22;100469.31;;;10.00;81.92
10897;BME280;5501;51.176;6.470;2024-03-23T08:21:46;100465.81;;;10.58;79.91
10897;BME280;5501;51.176;6.470;2024-03-23T08:26:47;100468.53;;;10.27;81.63
10897;BME280;5501;51.176;6.470;2024-03-23T08:31:47;100470.38;;;10.53;80.37
10897;BME280;5501;51.176;6.470;2024-03-23T08:36:48;100473.44;;;10.69;79.46
10897;BME280;5501;51.176;6.470;2024-03-23T08:41:48;100475.00;;;10.46;81.14
10897;BME280;5501;51.176;6.470;2024-03-23T08:46:50;100469.41;;;10.83;80.01
10897;BME280;5501;51.176;6.470;2024-03-23T08:51:51;100471.13;;;11.10;79.11
10897;BME280;5501;51.176;6.470;2024-03-23T08:56:52;100468.00;;;10.72;81.68
10897;BME280;5501;51.176;6.470;2024-03-23T09:01:53;100477.28;;;10.58;80.36
10897;BME280;5501;51.176;6.470;2024-03-23T09:06:54;100475.91;;;11.01;79.54
10897;BME280;5501;51.176;6.470;2024-03-23T09:11:54;100469.34;;;10.85;77.97
10897;BME280;5501;51.176;6.470;2024-03-23T09:16:55;100471.53;;;10.98;75.63
10897;BME280;5501;51.176;6.470;2024-03-23T09:21:55;100463.72;;;11.20;74.56
10897;BME280;5501;51.176;6.470;2024-03-23T09:26:56;100461.03;;;11.46;72.47
10897;BME280;5501;51.176;6.470;2024-03-23T09:31:57;100462.06;;;11.42;68.51
10897;BME280;5501;51.176;6.470;2024-03-23T09:36:57;100469.88;;;11.22;63.25
10897;BME280;5501;51.176;6.470;2024-03-23T09:41:58;100472.00;;;11.11;64.55
10897;BME280;5501;51.176;6.470;2024-03-23T09:46:59;100459.06;;;11.51;63.61
10897;BME280;5501;51.176;6.470;2024-03-23T09:51:59;100461.03;;;10.95;61.73
10897;BME280;5501;51.176;6.470;2024-03-23T09:57:00;100445.50;;;11.08;62.66
10897;BME280;5501;51.176;6.470;2024-03-23T10:02:01;100449.97;;;11.32;64.54
10897;BME280;5501;51.176;6.470;2024-03-23T10:07:15;100447.06;;;11.64;64.62
10897;BME280;5501;51.176;6.470;2024-03-23T10:12:18;100426.38;;;11.95;63.04
10897;BME280;5501;51.176;6.470;2024-03-23T10:17:20;100421.16;;;12.58;60.79
10897;BME280;5501;51.176;6.470;2024-03-23T10:22:24;100453.03;;;11.95;59.96
10897;BME280;5501;51.176;6.470;2024-03-23T10:27:25;100478.53;;;10.75;61.81
10897;BME280;5501;51.176;6.470;2024-03-23T10:32:25;100523.94;;;8.78;67.39
10897;BME280;5501;51.176;6.470;2024-03-23T10:37:27;100534.72;;;7.88;82.62
10897;BME280;5501;51.176;6.470;2024-03-23T10:42:28;100520.84;;;7.77;90.05
10897;BME280;5501;51.176;6.470;2024-03-23T10:47:29;100474.28;;;7.67;92.29
10897;BME280;5501;51.176;6.470;2024-03-23T10:52:29;100482.25;;;8.08;92.25
10897;BME280;5501;51.176;6.470;2024-03-23T10:57:37;100473.81;;;8.67;89.05
10897;BME280;5501;51.176;6.470;2024-03-23T11:02:40;100474.66;;;9.04;84.01
10897;BME280;5501;51.176;6.470;2024-03-23T11:07:49;100461.00;;;9.51;81.30
10897;BME280;5501;51.176;6.470;2024-03-23T11:12:50;100459.72;;;9.66;83.90
10897;BME280;5501;51.176;6.470;2024-03-23T11:18:06;100456.75;;;9.76;85.33
10897;BME280;5501;51.176;6.470;2024-03-23T11:23:27;100447.06;;;10.61;81.15
10897;BME280;5501;51.176;6.470;2024-03-23T11:28:28;100455.09;;;10.59;81.38
10897;BME280;5501;51.176;6.470;2024-03-23T11:33:29;100444.81;;;10.77;74.19
10897;BME280;5501;51.176;6.470;2024-03-23T11:38:36;100460.19;;;10.10;76.74
10897;BME280;5501;51.176;6.470;2024-03-23T11:43:37;100472.44;;;9.53;81.31
10897;BME280;5501;51.176;6.470;2024-03-23T11:48:37;100471.38;;;9.60;87.46
10897;BME280;5501;51.176;6.470;2024-03-23T11:53:38;100468.31;;;9.43;85.86
10897;BME280;5501;51.176;6.470;2024-03-23T11:58:40;100477.19;;;9.74;81.71
10897;BME280;5501;51.176;6.470;2024-03-23T12:03:44;100482.44;;;10.06;81.63
10897;BME280;5501;51.176;6.470;2024-03-23T12:08:44;100481.91;;;9.63;80.57
10897;BME280;5501;51.176;6.470;2024-03-23T12:13:45;100484.31;;;9.40;77.62
10897;BME280;5501;51.176;6.470;2024-03-23T12:18:48;100478.69;;;9.52;77.80
10897;BME280;5501;51.176;6.470;2024-03-23T12:23:52;100470.56;;;9.26;78.00
10897;BME280;5501;51.176;6.470;2024-03-23T12:28:52;100465.63;;;9.75;78.38
10897;BME280;5501;51.176;6.470;2024-03-23T12:33:53;100456.63;;;10.11;76.07
10897;BME280;5501;51.176;6.470;2024-03-23T12:38:53;100439.00;;;10.36;73.48
10897;BME280;5501;51.176;6.470;2024-03-23T12:43:54;100428.16;;;10.42;69.99
10897;BME280;5501;51.176;6.470;2024-03-23T12:48:54;100442.47;;;10.38;70.27
10897;BME280;5501;51.176;6.470;2024-03-23T12:53:55;100482.53;;;10.88;67.98
10897;BME280;5501;51.176;6.470;2024-03-23T12:58:56;100475.00;;;8.16;82.06
10897;BME280;5501;51.176;6.470;2024-03-23T13:03:57;100450.88;;;8.66;84.15
10897;BME280;5501;51.176;6.470;2024-03-23T13:09:03;100440.38;;;9.30;81.41
10897;BME280;5501;51.176;6.470;2024-03-23T13:14:04;100435.41;;;9.50;79.54
10897;BME280;5501;51.176;6.470;2024-03-23T13:19:05;100426.88;;;9.68;78.01
10897;BME280;5501;51.176;6.470;2024-03-23T13:24:06;100427.44;;;9.50;75.24
10897;BME280;5501;51.176;6.470;2024-03-23T13:29:06;100436.84;;;9.60;77.30
10897;BME280;5501;51.176;6.470;2024-03-23T13:34:07;100414.88;;;9.55;78.32
10897;BME280;5501;51.176;6.470;2024-03-23T13:39:07;100418.69;;;10.35;80.02
10897;BME280;5501;51.176;6.470;2024-03-23T13:44:12;100399.47;;;10.53;77.85
10897;BME280;5501;51.176;6.470;2024-03-23T13:49:25;100396.28;;;10.95;75.77
10897;BME280;5501;51.176;6.470;2024-03-23T13:54:27;100396.28;;;10.95;74.73
10897;BME280;5501;51.176;6.470;2024-03-23T13:59:27;100396.19;;;10.98;73.69
10897;BME280;5501;51.176;6.470;2024-03-23T14:04:28;100417.38;;;11.01;66.59
10897;BME280;5501;51.176;6.470;2024-03-23T14:09:29;100455.03;;;9.75;69.72
10897;BME280;5501;51.176;6.470;2024-03-23T14:14:30;100463.44;;;8.20;84.87
10897;BME280;5501;51.176;6.470;2024-03-23T14:19:31;100457.44;;;7.71;89.97
10897;BME280;5501;51.176;6.470;2024-03-23T14:24:33;100423.25;;;8.40;91.77
10897;BME280;5501;51.176;6.470;2024-03-23T14:29:33;100411.31;;;8.22;89.21
10897;BME280;5501;51.176;6.470;2024-03-23T14:34:34;100395.00;;;9.07;87.54
10897;BME280;5501;51.176;6.470;2024-03-23T14:39:35;100401.56;;;9.26;86.46
10897;BME280;5501;51.176;6.470;2024-03-23T14:44:36;100391.22;;;9.78;84.96
10897;BME280;5501;51.176;6.470;2024-03-23T14:49:36;100404.00;;;9.93;80.85
10897;BME280;5501;51.176;6.470;2024-03-23T14:54:37;100390.69;;;9.66;76.95
10897;BME280;5501;51.176;6.470;2024-03-23T14:59:37;100383.47;;;9.98;76.93
10897;BME280;5501;51.176;6.470;2024-03-23T15:04:38;100380.09;;;9.93;78.31
10897;BME280;5501;51.176;6.470;2024-03-23T15:09:42;100374.38;;;10.34;77.95
10897;BME280;5501;51.176;6.470;2024-03-23T15:14:42;100358.69;;;10.53;76.10
10897;BME280;5501;51.176;6.470;2024-03-23T15:19:43;100352.81;;;10.70;76.89
10897;BME280;5501;51.176;6.470;2024-03-23T15:24:43;100357.59;;;10.60;75.09
10897;BME280;5501;51.176;6.470;2024-03-23T15:29:44;100374.31;;;10.10;72.28
10897;BME280;5501;51.176;6.470;2024-03-23T15:34:46;100372.97;;;9.95;73.52
10897;BME280;5501;51.176;6.470;2024-03-23T15:39:46;100363.47;;;10.16;74.11
10897;BME280;5501;51.176;6.470;2024-03-23T15:44:47;100342.63;;;10.02;69.29
10897;BME280;5501;51.176;6.470;2024-03-23T15:49:48;100339.06;;;10.03;68.23
10897;BME280;5501;51.176;6.470;2024-03-23T15:54:48;100327.97;;;9.33;71.02
10897;BME280;5501;51.176;6.470;2024-03-23T15:59:49;100325.97;;;9.41;71.12
10897;BME280;5501;51.176;6.470;2024-03-23T16:04:50;100315.50;;;9.93;72.43
10897;BME280;5501;51.176;6.470;2024-03-23T16:09:50;100323.78;;;10.37;71.15
10897;BME280;5501;51.176;6.470;2024-03-23T16:14:51;100299.88;;;10.37;70.25
10897;BME280;5501;51.176;6.470;2024-03-23T16:19:51;100309.44;;;10.43;66.73
10897;BME280;5501;51.176;6.470;2024-03-23T16:24:52;100305.34;;;10.59;65.62
10897;BME280;5501;51.176;6.470;2024-03-23T16:29:52;100303.53;;;10.59;64.75
10897;BME280;5501;51.176;6.470;2024-03-23T16:34:53;100314.69;;;10.44;63.48
10897;BME280;5501;51.176;6.470;2024-03-23T16:39:53;100314.03;;;10.38;64.73
10897;BME280;5501;51.176;6.470;2024-03-23T16:44:54;100310.47;;;10.39;64.25
10897;BME280;5501;51.176;6.470;2024-03-23T16:49:54;100301.22;;;10.24;65.25
10897;BME280;5501;51.176;6.470;2024-03-23T16:54:55;100295.88;;;10.24;64.65
10897;BME280;5501;51.176;6.470;2024-03-23T16:59:55;100303.78;;;9.98;67.10
10897;BME280;5501;51.176;6.470;2024-03-23T17:04:56;100303.66;;;10.03;66.67
10897;BME280;5501;51.176;6.470;2024-03-23T17:09:56;100305.06;;;10.14;69.64
10897;BME280;5501;51.176;6.470;2024-03-23T17:14:57;100321.31;;;10.05;69.34
10897;BME280;5501;51.176;6.470;2024-03-23T17:20:01;100365.50;;;8.87;74.23
10897;BME280;5501;51.176;6.470;2024-03-23T17:25:03;100353.88;;;7.86;87.03
10897;BME280;5501;51.176;6.470;2024-03-23T17:30:04;100336.34;;;7.81;91.43
10897;BME280;5501;51.176;6.470;2024-03-23T17:35:05;100327.66;;;7.74;90.06
10897;BME280;5501;51.176;6.470;2024-03-23T17:40:07;100317.69;;;8.23;90.26
10897;BME280;5501;51.176;6.470;2024-03-23T17:45:08;100319.28;;;8.30;88.09
10897;BME280;5501;51.176;6.470;2024-03-23T17:50:09;100317.00;;;8.50;87.31
10897;BME280;5501;51.176;6.470;2024-03-23T17:55:10;100307.16;;;8.20;85.96
10897;BME280;5501;51.176;6.470;2024-03-23T18:00:11;100316.25;;;8.09;86.44
10897;BME280;5501;51.176;6.470;2024-03-23T18:05:12;100323.31;;;8.45;85.41
10897;BME280;5501;51.176;6.470;2024-03-23T18:10:13;100322.34;;;8.49;86.14
10897;BME280;5501;51.176;6.470;2024-03-23T18:15:14;100310.59;;;8.25;87.50
10897;BME280;5501;51.176;6.470;2024-03-23T18:20:14;100315.34;;;8.46;85.66
10897;BME280;5501;51.176;6.470;2024-03-23T18:25:15;100316.09;;;8.16;85.86
10897;BME280;5501;51.176;6.470;2024-03-23T18:30:15;100317.75;;;8.55;87.50
10897;BME280;5501;51.176;6.470;2024-03-23T18:35:16;100309.53;;;8.32;86.73
10897;BME280;5501;51.176;6.470;2024-03-23T18:40:17;100312.09;;;8.35;87.93
10897;BME280;5501;51.176;6.470;2024-03-23T18:45:18;100311.38;;;8.29;87.78
10897;BME280;5501;51.176;6.470;2024-03-23T18:50:18;100296.28;;;8.32;86.87
10897;BME280;5501;51.176;6.470;2024-03-23T18:55:19;100295.69;;;8.20;87.37
10897;BME280;5501;51.176;6.470;2024-03-23T19:00:21;100277.34;;;8.12;87.49
10897;BME280;5501;51.176;6.470;2024-03-23T19:05:21;100279.38;;;8.01;87.67
10897;BME280;5501;51.176;6.470;2024-03-23T19:10:22;100283.00;;;7.97;88.73
10897;BME280;5501;51.176;6.470;2024-03-23T19:15:23;100283.38;;;7.82;87.10
10897;BME280;5501;51.176;6.470;2024-03-23T19:20:23;100297.84;;;7.66;90.18
10897;BME280;5501;51.176;6.470;2024-03-23T19:25:24;100292.94;;;7.88;87.85
10897;BME280;5501;51.176;6.470;2024-03-23T19:30:29;100292.44;;;7.72;88.90
10897;BME280;5501;51.176;6.470;2024-03-23T19:35:30;100276.34;;;7.81;89.60
10897;BME280;5501;51.176;6.470;2024-03-23T19:40:30;100271.78;;;7.86;89.09
10897;BME280;5501;51.176;6.470;2024-03-23T19:45:31;100272.59;;;7.91;89.07
10897;BME280;5501;51.176;6.470;2024-03-23T19:50:31;100267.44;;;7.84;88.96
10897;BME280;5501;51.176;6.470;2024-03-23T19:55:36;100267.41;;;7.85;89.49
10897;BME280;5501;51.176;6.470;2024-03-23T20:00:37;100271.94;;;7.82;89.63
10897;BME280;5501;51.176;6.470;2024-03-23T20:05:39;100254.75;;;7.99;89.45
10897;BME280;5501;51.176;6.470;2024-03-23T20:10:46;100262.00;;;7.91;88.19
10897;BME280;5501;51.176;6.470;2024-03-23T20:15:54;100260.22;;;7.90;89.20
10897;BME280;5501;51.176;6.470;2024-03-23T20:20:55;100254.94;;;7.90;89.53
10897;BME280;5501;51.176;6.470;2024-03-23T20:25:57;100249.09;;;8.11;87.62
10897;BME280;5501;51.176;6.470;2024-03-23T20:31:01;100249.56;;;7.93;88.82
10897;BME280;5501;51.176;6.470;2024-03-23T20:36:02;100250.09;;;7.72;90.21
10897;BME280;5501;51.176;6.470;2024-03-23T20:41:03;100239.50;;;7.72;91.41
10897;BME280;5501;51.176;6.470;2024-03-23T20:46:03;100235.28;;;8.00;90.82
10897;BME280;5501;51.176;6.470;2024-03-23T20:51:04;100237.25;;;7.92;91.06
10897;BME280;5501;51.176;6.470;2024-03-23T20:56:05;100237.38;;;7.86;91.79
10897;BME280;5501;51.176;6.470;2024-03-23T21:01:06;100232.75;;;7.96;91.19
10897;BME280;5501;51.176;6.470;2024-03-23T21:06:08;100228.41;;;7.93;91.19
10897;BME280;5501;51.176;6.470;2024-03-23T21:11:09;100231.88;;;7.95;91.77
10897;BME280;5501;51.176;6.470;2024-03-23T21:16:11;100215.66;;;8.07;91.34
10897;BME280;5501;51.176;6.470;2024-03-23T21:21:11;100218.34;;;7.72;93.14
10897;BME280;5501;51.176;6.470;2024-03-23T21:26:12;100215.44;;;7.83;92.73
10897;BME280;5501;51.176;6.470;2024-03-23T21:31:13;100216.13;;;7.89;92.35
10897;BME280;5501;51.176;6.470;2024-03-23T21:36:13;100209.38;;;7.78;93.23
10897;BME280;5501;51.176;6.470;2024-03-23T21:41:14;100204.25;;;7.70;93.16
10897;BME280;5501;51.176;6.470;2024-03-23T21:46:14;100215.13;;;7.95;91.80
10897;BME280;5501;51.176;6.470;2024-03-23T21:51:15;100219.41;;;8.00;91.12
10897;BME280;5501;51.176;6.470;2024-03-23T21:56:18;100211.41;;;7.67;91.66
10897;BME280;5501;51.176;6.470;2024-03-23T22:01:18;100207.47;;;8.18;89.62
10897;BME280;5501;51.176;6.470;2024-03-23T22:06:20;100215.16;;;7.93;88.63
10897;BME280;5501;51.176;6.470;2024-03-23T22:11:20;100210.91;;;7.86;89.78
10897;BME280;5501;51.176;6.470;2024-03-23T22:16:21;100193.97;;;7.93;89.55
10897;BME280;5501;51.176;6.470;2024-03-23T22:21:22;100198.75;;;7.79;90.29
10897;BME280;5501;51.176;6.470;2024-03-23T22:26:23;100192.00;;;8.01;88.12
10897;BME280;5501;51.176;6.470;2024-03-23T22:31:23;100181.22;;;7.75;89.31
10897;BME280;5501;51.176;6.470;2024-03-23T22:36:24;100189.75;;;7.86;87.75
10897;BME280;5501;51.176;6.470;2024-03-23T22:41:25;100180.47;;;8.04;88.39
10897;BME280;5501;51.176;6.470;2024-03-23T22:46:25;100182.09;;;7.74;89.05
10897;BME280;5501;51.176;6.470;2024-03-23T22:51:26;100170.78;;;7.69;89.05
10897;BME280;5501;51.176;6.470;2024-03-23T22:56:26;100166.81;;;7.50;89.33
10897;BME280;5501;51.176;6.470;2024-03-23T23:01:27;100153.41;;;7.59;89.83
10897;BME280;5501;51.176;6.470;2024-03-23T23:06:28;100149.34;;;7.78;89.37
10897;BME280;5501;51.176;6.470;2024-03-23T23:11:28;100157.81;;;7.59;90.47
10897;BME280;5501;51.176;6.470;2024-03-23T23:16:29;100144.00;;;7.81;89.38
10897;BME280;5501;51.176;6.470;2024-03-23T23:21:30;100149.84;;;7.60;91.13
10897;BME280;5501;51.176;6.470;2024-03-23T23:26:31;100123.06;;;7.72;91.73
10897;BME280;5501;51.176;6.470;2024-03-23T23:31:31;100134.09;;;7.54;92.42
10897;BME280;5501;51.176;6.470;2024-03-23T23:36:33;100118.63;;;7.39;93.60
10897;BME280;5501;51.176;6.470;2024-03-23T23:41:34;100105.31;;;7.76;92.18
10897;BME280;5501;51.176;6.470;2024-03-23T23:46:34;100101.66;;;7.81;92.66
10897;BME280;5501;51.176;6.470;2024-03-23T23:51:35;100096.44;;;7.78;92.41
10897;BME280;5501;51.176;6.470;2024-03-23T23:56:35;100091.38;;;7.69;92.86
